sensor_id;sensor_type;location;lat;lon;timestamp;P1;durP1;ratioP1;P2;durP2;ratioP2
35891;SDS011;21993;42.672;23.296;2023-08-01T00:01:27;2.37;;;2.17;;
35891;SDS011;21993;42.672;23.296;2023-08-01T00:03:52;4.13;;;2.20;;
35891;SDS011;21993;42.672;23.296;2023-08-01T00:06:18;2.20;;;2.00;;
35891;SDS011;21993;42.672;23.296;2023-08-01T00:08:44;1.90;;;1.80;;
35891;SDS011;21993;42.672;23.296;2023-08-01T00:11:10;3.80;;;2.13;;
35891;SDS011;21993;42.672;23.296;2023-08-01T00:13:36;2.07;;;1.93;;
35891;SDS011;21993;42.672;23.296;2023-08-01T00:16:02;2.40;;;2.20;;
35891;SDS011;21993;42.672;23.296;2023-08-01T00:18:27;2.00;;;1.90;;
35891;SDS011;21993;42.672;23.296;2023-08-01T00:20:53;3.20;;;2.20;;
35891;SDS011;21993;42.672;23.296;2023-08-01T00:23:19;3.27;;;1.87;;
35891;SDS011;21993;42.672;23.296;2023-08-01T00:25:44;1.70;;;1.60;;
35891;SDS011;21993;42.672;23.296;2023-08-01T00:28:10;1.97;;;1.87;;
35891;SDS011;21993;42.672;23.296;2023-08-01T00:30:35;2.03;;;1.93;;
35891;SDS011;21993;42.672;23.296;2023-08-01T00:33:00;2.60;;;2.10;;
35891;SDS011;21993;42.672;23.296;2023-08-01T00:35:26;3.27;;;2.10;;
35891;SDS011;21993;42.672;23.296;2023-08-01T00:37:51;2.87;;;2.10;;
35891;SDS011;21993;42.672;23.296;2023-08-01T00:40:17;2.87;;;2.40;;
35891;SDS011;21993;42.672;23.296;2023-08-01T00:42:42;2.10;;;1.90;;
35891;SDS011;21993;42.672;23.296;2023-08-01T00:45:08;2.00;;;1.90;;
35891;SDS011;21993;42.672;23.296;2023-08-01T00:47:34;2.47;;;2.00;;
35891;SDS011;21993;42.672;23.296;2023-08-01T00:50:00;2.03;;;1.90;;
35891;SDS011;21993;42.672;23.296;2023-08-01T00:52:26;2.63;;;2.30;;
35891;SDS011;21993;42.672;23.296;2023-08-01T00:54:52;4.00;;;1.93;;
35891;SDS011;21993;42.672;23.296;2023-08-01T00:57:18;5.30;;;2.10;;
35891;SDS011;21993;42.672;23.296;2023-08-01T00:59:44;2.97;;;2.33;;
35891;SDS011;21993;42.672;23.296;2023-08-01T01:02:09;2.40;;;2.20;;
35891;SDS011;21993;42.672;23.296;2023-08-01T01:04:36;2.40;;;2.20;;
35891;SDS011;21993;42.672;23.296;2023-08-01T01:07:03;2.47;;;2.10;;
35891;SDS011;21993;42.672;23.296;2023-08-01T01:09:31;3.43;;;2.33;;
35891;SDS011;21993;42.672;23.296;2023-08-01T01:11:57;2.77;;;2.10;;
35891;SDS011;21993;42.672;23.296;2023-08-01T01:14:26;2.30;;;2.10;;
35891;SDS011;21993;42.672;23.296;2023-08-01T01:16:52;3.83;;;2.30;;
35891;SDS011;21993;42.672;23.296;2023-08-01T01:19:17;2.40;;;2.13;;
35891;SDS011;21993;42.672;23.296;2023-08-01T01:21:43;3.13;;;2.10;;
35891;SDS011;21993;42.672;23.296;2023-08-01T01:24:10;2.43;;;2.27;;
35891;SDS011;21993;42.672;23.296;2023-08-01T01:26:36;2.00;;;1.80;;
35891;SDS011;21993;42.672;23.296;2023-08-01T01:29:04;2.23;;;2.03;;
35891;SDS011;21993;42.672;23.296;2023-08-01T01:31:31;3.23;;;2.10;;
35891;SDS011;21993;42.672;23.296;2023-08-01T01:33:57;8.40;;;2.90;;
35891;SDS011;21993;42.672;23.296;2023-08-01T01:36:23;5.20;;;2.20;;
35891;SDS011;21993;42.672;23.296;2023-08-01T01:38:49;2.50;;;2.30;;
35891;SDS011;21993;42.672;23.296;2023-08-01T01:41:14;2.23;;;2.03;;
35891;SDS011;21993;42.672;23.296;2023-08-01T01:43:40;2.60;;;2.27;;
35891;SDS011;21993;42.672;23.296;2023-08-01T01:46:06;2.50;;;2.30;;
35891;SDS011;21993;42.672;23.296;2023-08-01T01:48:31;1.87;;;1.77;;
35891;SDS011;21993;42.672;23.296;2023-08-01T01:50:57;3.13;;;2.10;;
35891;SDS011;21993;42.672;23.296;2023-08-01T01:53:22;4.40;;;2.20;;
35891;SDS011;21993;42.672;23.296;2023-08-01T01:55:47;2.30;;;2.10;;
35891;SDS011;21993;42.672;23.296;2023-08-01T01:58:13;2.10;;;2.00;;
35891;SDS011;21993;42.672;23.296;2023-08-01T02:00:38;2.83;;;2.20;;
35891;SDS011;21993;42.672;23.296;2023-08-01T02:03:04;2.20;;;2.00;;
35891;SDS011;21993;42.672;23.296;2023-08-01T02:05:29;4.10;;;2.10;;
35891;SDS011;21993;42.672;23.296;2023-08-01T02:07:55;4.43;;;2.20;;
35891;SDS011;21993;42.672;23.296;2023-08-01T02:10:20;2.20;;;2.00;;
35891;SDS011;21993;42.672;23.296;2023-08-01T02:12:46;2.60;;;2.17;;
35891;SDS011;21993;42.672;23.296;2023-08-01T02:15:11;2.73;;;2.20;;
35891;SDS011;21993;42.672;23.296;2023-08-01T02:17:37;2.50;;;2.30;;
35891;SDS011;21993;42.672;23.296;2023-08-01T02:20:02;3.87;;;2.20;;
35891;SDS011;21993;42.672;23.296;2023-08-01T02:22:28;6.07;;;2.57;;
35891;SDS011;21993;42.672;23.296;2023-08-01T02:24:53;2.40;;;2.20;;
35891;SDS011;21993;42.672;23.296;2023-08-01T02:27:19;2.40;;;2.10;;
35891;SDS011;21993;42.672;23.296;2023-08-01T02:29:44;2.17;;;2.00;;
35891;SDS011;21993;42.672;23.296;2023-08-01T02:32:10;2.50;;;2.07;;
35891;SDS011;21993;42.672;23.296;2023-08-01T02:34:35;2.67;;;2.27;;
35891;SDS011;21993;42.672;23.296;2023-08-01T02:37:00;2.67;;;2.10;;
35891;SDS011;21993;42.672;23.296;2023-08-01T02:39:26;2.00;;;1.80;;
35891;SDS011;21993;42.672;23.296;2023-08-01T02:41:51;3.73;;;2.60;;
35891;SDS011;21993;42.672;23.296;2023-08-01T02:44:17;2.27;;;2.07;;
35891;SDS011;21993;42.672;23.296;2023-08-01T02:46:42;6.33;;;2.33;;
35891;SDS011;21993;42.672;23.296;2023-08-01T02:49:07;3.67;;;2.30;;
35891;SDS011;21993;42.672;23.296;2023-08-01T02:51:33;2.30;;;2.10;;
35891;SDS011;21993;42.672;23.296;2023-08-01T02:53:58;4.13;;;2.60;;
35891;SDS011;21993;42.672;23.296;2023-08-01T02:56:24;2.30;;;2.03;;
35891;SDS011;21993;42.672;23.296;2023-08-01T02:58:49;3.30;;;2.10;;
35891;SDS011;21993;42.672;23.296;2023-08-01T03:01:17;2.43;;;2.20;;
35891;SDS011;21993;42.672;23.296;2023-08-01T03:03:42;2.20;;;2.00;;
35891;SDS011;21993;42.672;23.296;2023-08-01T03:06:08;2.30;;;2.10;;
35891;SDS011;21993;42.672;23.296;2023-08-01T03:08:33;2.83;;;2.30;;
35891;SDS011;21993;42.672;23.296;2023-08-01T03:10:59;8.00;;;2.80;;
35891;SDS011;21993;42.672;23.296;2023-08-01T03:13:24;3.40;;;2.70;;
35891;SDS011;21993;42.672;23.296;2023-08-01T03:15:50;2.97;;;2.40;;
35891;SDS011;21993;42.672;23.296;2023-08-01T03:18:15;3.73;;;2.50;;
35891;SDS011;21993;42.672;23.296;2023-08-01T03:20:41;6.27;;;2.60;;
35891;SDS011;21993;42.672;23.296;2023-08-01T03:23:06;4.60;;;2.50;;
35891;SDS011;21993;42.672;23.296;2023-08-01T03:25:32;2.10;;;1.80;;
35891;SDS011;21993;42.672;23.296;2023-08-01T03:27:58;2.53;;;2.20;;
35891;SDS011;21993;42.672;23.296;2023-08-01T03:30:24;2.67;;;2.40;;
35891;SDS011;21993;42.672;23.296;2023-08-01T03:32:49;4.00;;;2.50;;
35891;SDS011;21993;42.672;23.296;2023-08-01T03:35:15;3.10;;;2.43;;
35891;SDS011;21993;42.672;23.296;2023-08-01T03:37:40;2.30;;;2.10;;
35891;SDS011;21993;42.672;23.296;2023-08-01T03:40:06;3.97;;;2.83;;
35891;SDS011;21993;42.672;23.296;2023-08-01T03:42:35;2.90;;;2.37;;
35891;SDS011;21993;42.672;23.296;2023-08-01T03:45:05;2.43;;;2.20;;
35891;SDS011;21993;42.672;23.296;2023-08-01T03:47:31;3.03;;;2.47;;
35891;SDS011;21993;42.672;23.296;2023-08-01T03:49:57;4.57;;;2.87;;
35891;SDS011;21993;42.672;23.296;2023-08-01T03:52:22;2.60;;;2.40;;
35891;SDS011;21993;42.672;23.296;2023-08-01T03:54:48;5.10;;;2.40;;
35891;SDS011;21993;42.672;23.296;2023-08-01T03:57:13;2.47;;;2.20;;
35891;SDS011;21993;42.672;23.296;2023-08-01T03:59:39;3.73;;;2.53;;
35891;SDS011;21993;42.672;23.296;2023-08-01T04:02:05;5.07;;;2.40;;
35891;SDS011;21993;42.672;23.296;2023-08-01T04:04:30;2.73;;;2.43;;
35891;SDS011;21993;42.672;23.296;2023-08-01T04:06:56;4.13;;;2.70;;
35891;SDS011;21993;42.672;23.296;2023-08-01T04:09:22;3.37;;;2.77;;
35891;SDS011;21993;42.672;23.296;2023-08-01T04:11:47;7.47;;;3.90;;
35891;SDS011;21993;42.672;23.296;2023-08-01T04:14:13;3.77;;;2.87;;
35891;SDS011;21993;42.672;23.296;2023-08-01T04:16:39;3.40;;;2.90;;
35891;SDS011;21993;42.672;23.296;2023-08-01T04:19:04;4.67;;;2.43;;
35891;SDS011;21993;42.672;23.296;2023-08-01T04:21:30;4.23;;;2.50;;
35891;SDS011;21993;42.672;23.296;2023-08-01T04:23:55;3.97;;;2.80;;
35891;SDS011;21993;42.672;23.296;2023-08-01T04:26:20;3.67;;;2.77;;
35891;SDS011;21993;42.672;23.296;2023-08-01T04:28:46;2.93;;;2.63;;
35891;SDS011;21993;42.672;23.296;2023-08-01T04:31:12;6.60;;;3.00;;
35891;SDS011;21993;42.672;23.296;2023-08-01T04:33:38;6.10;;;2.83;;
35891;SDS011;21993;42.672;23.296;2023-08-01T04:36:03;4.60;;;3.30;;
35891;SDS011;21993;42.672;23.296;2023-08-01T04:38:29;4.63;;;3.10;;
35891;SDS011;21993;42.672;23.296;2023-08-01T04:40:54;4.50;;;2.97;;
35891;SDS011;21993;42.672;23.296;2023-08-01T04:43:19;4.63;;;2.90;;
35891;SDS011;21993;42.672;23.296;2023-08-01T04:45:45;5.33;;;2.80;;
35891;SDS011;21993;42.672;23.296;2023-08-01T04:48:11;5.27;;;2.83;;
35891;SDS011;21993;42.672;23.296;2023-08-01T04:50:36;4.33;;;2.90;;
35891;SDS011;21993;42.672;23.296;2023-08-01T04:53:01;3.10;;;2.90;;
35891;SDS011;21993;42.672;23.296;2023-08-01T04:55:27;4.40;;;3.10;;
35891;SDS011;21993;42.672;23.296;2023-08-01T04:57:53;4.43;;;3.00;;
35891;SDS011;21993;42.672;23.296;2023-08-01T05:00:18;3.43;;;3.03;;
35891;SDS011;21993;42.672;23.296;2023-08-01T05:02:44;4.63;;;3.00;;
35891;SDS011;21993;42.672;23.296;2023-08-01T05:05:09;4.60;;;3.07;;
35891;SDS011;21993;42.672;23.296;2023-08-01T05:07:35;5.03;;;3.20;;
35891;SDS011;21993;42.672;23.296;2023-08-01T05:10:00;5.77;;;3.23;;
35891;SDS011;21993;42.672;23.296;2023-08-01T05:12:25;4.77;;;3.00;;
35891;SDS011;21993;42.672;23.296;2023-08-01T05:14:51;2.77;;;2.57;;
35891;SDS011;21993;42.672;23.296;2023-08-01T05:17:16;3.40;;;2.70;;
35891;SDS011;21993;42.672;23.296;2023-08-01T05:19:42;7.17;;;3.17;;
35891;SDS011;21993;42.672;23.296;2023-08-01T05:22:07;4.80;;;3.30;;
35891;SDS011;21993;42.672;23.296;2023-08-01T05:24:32;5.57;;;3.10;;
35891;SDS011;21993;42.672;23.296;2023-08-01T05:26:58;4.37;;;2.87;;
35891;SDS011;21993;42.672;23.296;2023-08-01T05:29:23;3.50;;;3.07;;
35891;SDS011;21993;42.672;23.296;2023-08-01T05:31:49;3.73;;;2.63;;
35891;SDS011;21993;42.672;23.296;2023-08-01T05:34:14;5.50;;;3.10;;
35891;SDS011;21993;42.672;23.296;2023-08-01T05:36:39;4.20;;;2.90;;
35891;SDS011;21993;42.672;23.296;2023-08-01T05:39:05;4.53;;;2.87;;
35891;SDS011;21993;42.672;23.296;2023-08-01T05:41:30;7.40;;;3.30;;
35891;SDS011;21993;42.672;23.296;2023-08-01T05:43:56;5.67;;;3.23;;
35891;SDS011;21993;42.672;23.296;2023-08-01T05:46:21;4.77;;;2.87;;
35891;SDS011;21993;42.672;23.296;2023-08-01T05:48:47;4.47;;;3.20;;
35891;SDS011;21993;42.672;23.296;2023-08-01T05:51:12;4.00;;;2.77;;
35891;SDS011;21993;42.672;23.296;2023-08-01T05:53:38;5.03;;;2.90;;
35891;SDS011;21993;42.672;23.296;2023-08-01T05:56:03;6.27;;;2.77;;
35891;SDS011;21993;42.672;23.296;2023-08-01T05:58:30;4.00;;;3.13;;
35891;SDS011;21993;42.672;23.296;2023-08-01T06:00:55;4.33;;;2.97;;
35891;SDS011;21993;42.672;23.296;2023-08-01T06:03:21;7.87;;;3.10;;
35891;SDS011;21993;42.672;23.296;2023-08-01T06:05:47;3.50;;;3.20;;
35891;SDS011;21993;42.672;23.296;2023-08-01T06:08:12;8.53;;;2.93;;
35891;SDS011;21993;42.672;23.296;2023-08-01T06:10:38;5.90;;;3.20;;
35891;SDS011;21993;42.672;23.296;2023-08-01T06:13:04;5.77;;;3.13;;
35891;SDS011;21993;42.672;23.296;2023-08-01T06:15:29;4.43;;;2.90;;
35891;SDS011;21993;42.672;23.296;2023-08-01T06:17:55;2.83;;;2.20;;
35891;SDS011;21993;42.672;23.296;2023-08-01T06:20:20;4.60;;;3.07;;
35891;SDS011;21993;42.672;23.296;2023-08-01T06:22:45;4.87;;;2.90;;
35891;SDS011;21993;42.672;23.296;2023-08-01T06:25:11;6.77;;;4.23;;
35891;SDS011;21993;42.672;23.296;2023-08-01T06:27:37;3.77;;;2.57;;
35891;SDS011;21993;42.672;23.296;2023-08-01T06:30:03;3.83;;;2.60;;
35891;SDS011;21993;42.672;23.296;2023-08-01T06:32:29;4.13;;;1.97;;
35891;SDS011;21993;42.672;23.296;2023-08-01T06:34:54;6.47;;;2.40;;
35891;SDS011;21993;42.672;23.296;2023-08-01T06:37:19;3.83;;;2.90;;
35891;SDS011;21993;42.672;23.296;2023-08-01T06:39:45;2.63;;;2.20;;
35891;SDS011;21993;42.672;23.296;2023-08-01T06:42:10;5.83;;;2.50;;
35891;SDS011;21993;42.672;23.296;2023-08-01T06:44:36;3.37;;;2.43;;
35891;SDS011;21993;42.672;23.296;2023-08-01T06:47:01;4.60;;;2.67;;
35891;SDS011;21993;42.672;23.296;2023-08-01T06:49:27;3.77;;;2.43;;
35891;SDS011;21993;42.672;23.296;2023-08-01T06:51:52;2.87;;;2.13;;
35891;SDS011;21993;42.672;23.296;2023-08-01T06:54:17;4.23;;;2.30;;
35891;SDS011;21993;42.672;23.296;2023-08-01T06:56:43;5.30;;;2.70;;
35891;SDS011;21993;42.672;23.296;2023-08-01T06:59:13;7.10;;;2.80;;
35891;SDS011;21993;42.672;23.296;2023-08-01T07:01:39;4.67;;;2.60;;
35891;SDS011;21993;42.672;23.296;2023-08-01T07:04:05;6.23;;;2.97;;
35891;SDS011;21993;42.672;23.296;2023-08-01T07:06:31;6.93;;;2.77;;
35891;SDS011;21993;42.672;23.296;2023-08-01T07:08:56;3.57;;;2.40;;
35891;SDS011;21993;42.672;23.296;2023-08-01T07:11:22;2.70;;;2.40;;
35891;SDS011;21993;42.672;23.296;2023-08-01T07:13:48;3.97;;;2.80;;
35891;SDS011;21993;42.672;23.296;2023-08-01T07:16:13;3.23;;;2.73;;
35891;SDS011;21993;42.672;23.296;2023-08-01T07:18:39;4.23;;;2.73;;
35891;SDS011;21993;42.672;23.296;2023-08-01T07:21:05;5.07;;;2.70;;
35891;SDS011;21993;42.672;23.296;2023-08-01T07:23:30;4.27;;;3.00;;
35891;SDS011;21993;42.672;23.296;2023-08-01T07:25:58;5.13;;;3.10;;
35891;SDS011;21993;42.672;23.296;2023-08-01T07:28:23;4.20;;;3.30;;
35891;SDS011;21993;42.672;23.296;2023-08-01T07:30:57;5.07;;;3.00;;
35891;SDS011;21993;42.672;23.296;2023-08-01T07:33:23;5.80;;;2.70;;
35891;SDS011;21993;42.672;23.296;2023-08-01T07:35:49;2.77;;;2.43;;
35891;SDS011;21993;42.672;23.296;2023-08-01T07:38:14;3.27;;;2.80;;
35891;SDS011;21993;42.672;23.296;2023-08-01T07:40:39;3.03;;;2.80;;
35891;SDS011;21993;42.672;23.296;2023-08-01T07:43:05;5.20;;;2.87;;
35891;SDS011;21993;42.672;23.296;2023-08-01T07:45:32;5.33;;;3.00;;
35891;SDS011;21993;42.672;23.296;2023-08-01T07:47:59;4.70;;;2.77;;
35891;SDS011;21993;42.672;23.296;2023-08-01T07:50:25;4.13;;;3.00;;
35891;SDS011;21993;42.672;23.296;2023-08-01T07:52:51;4.53;;;3.00;;
35891;SDS011;21993;42.672;23.296;2023-08-01T07:55:16;4.63;;;2.93;;
35891;SDS011;21993;42.672;23.296;2023-08-01T07:57:43;3.40;;;2.67;;
35891;SDS011;21993;42.672;23.296;2023-08-01T08:00:09;7.03;;;3.37;;
35891;SDS011;21993;42.672;23.296;2023-08-01T08:02:35;6.70;;;2.97;;
35891;SDS011;21993;42.672;23.296;2023-08-01T08:05:01;3.77;;;3.20;;
35891;SDS011;21993;42.672;23.296;2023-08-01T08:07:26;4.33;;;2.60;;
35891;SDS011;21993;42.672;23.296;2023-08-01T08:09:52;3.30;;;3.00;;
35891;SDS011;21993;42.672;23.296;2023-08-01T08:12:20;3.47;;;2.97;;
35891;SDS011;21993;42.672;23.296;2023-08-01T08:14:48;4.43;;;2.90;;
35891;SDS011;21993;42.672;23.296;2023-08-01T08:17:16;6.90;;;3.23;;
35891;SDS011;21993;42.672;23.296;2023-08-01T08:19:41;4.47;;;3.27;;
35891;SDS011;21993;42.672;23.296;2023-08-01T08:22:06;4.77;;;2.87;;
35891;SDS011;21993;42.672;23.296;2023-08-01T08:24:32;5.63;;;3.20;;
35891;SDS011;21993;42.672;23.296;2023-08-01T08:26:58;4.73;;;3.03;;
35891;SDS011;21993;42.672;23.296;2023-08-01T08:29:23;3.73;;;2.77;;
35891;SDS011;21993;42.672;23.296;2023-08-01T08:31:49;5.27;;;3.10;;
35891;SDS011;21993;42.672;23.296;2023-08-01T08:34:14;7.47;;;3.27;;
35891;SDS011;21993;42.672;23.296;2023-08-01T08:36:40;6.60;;;3.30;;
35891;SDS011;21993;42.672;23.296;2023-08-01T08:39:05;4.20;;;3.20;;
35891;SDS011;21993;42.672;23.296;2023-08-01T08:41:34;4.63;;;3.30;;
35891;SDS011;21993;42.672;23.296;2023-08-01T08:44:10;6.67;;;3.50;;
35891;SDS011;21993;42.672;23.296;2023-08-01T08:46:40;5.47;;;3.17;;
35891;SDS011;21993;42.672;23.296;2023-08-01T08:49:08;5.93;;;3.57;;
35891;SDS011;21993;42.672;23.296;2023-08-01T08:51:34;3.30;;;3.00;;
35891;SDS011;21993;42.672;23.296;2023-08-01T08:54:01;5.00;;;3.33;;
35891;SDS011;21993;42.672;23.296;2023-08-01T08:56:28;3.63;;;3.33;;
35891;SDS011;21993;42.672;23.296;2023-08-01T08:58:54;7.37;;;4.17;;
35891;SDS011;21993;42.672;23.296;2023-08-01T09:01:19;9.47;;;4.13;;
35891;SDS011;21993;42.672;23.296;2023-08-01T09:03:45;4.57;;;3.03;;
35891;SDS011;21993;42.672;23.296;2023-08-01T09:06:14;5.33;;;3.53;;
35891;SDS011;21993;42.672;23.296;2023-08-01T09:08:51;6.70;;;3.60;;
35891;SDS011;21993;42.672;23.296;2023-08-01T09:11:20;5.33;;;3.47;;
35891;SDS011;21993;42.672;23.296;2023-08-01T09:13:46;5.77;;;3.60;;
35891;SDS011;21993;42.672;23.296;2023-08-01T09:16:12;4.03;;;3.33;;
35891;SDS011;21993;42.672;23.296;2023-08-01T09:18:51;4.33;;;3.73;;
35891;SDS011;21993;42.672;23.296;2023-08-01T09:21:18;3.83;;;3.50;;
35891;SDS011;21993;42.672;23.296;2023-08-01T09:23:44;7.13;;;3.97;;
35891;SDS011;21993;42.672;23.296;2023-08-01T09:26:13;6.13;;;3.60;;
35891;SDS011;21993;42.672;23.296;2023-08-01T09:28:43;4.10;;;3.60;;
35891;SDS011;21993;42.672;23.296;2023-08-01T09:31:09;3.90;;;3.43;;
35891;SDS011;21993;42.672;23.296;2023-08-01T09:33:42;6.00;;;3.50;;
35891;SDS011;21993;42.672;23.296;2023-08-01T09:36:08;4.93;;;3.63;;
35891;SDS011;21993;42.672;23.296;2023-08-01T09:38:34;3.87;;;3.53;;
35891;SDS011;21993;42.672;23.296;2023-08-01T09:41:00;6.43;;;3.80;;
35891;SDS011;21993;42.672;23.296;2023-08-01T09:43:32;6.43;;;3.50;;
35891;SDS011;21993;42.672;23.296;2023-08-01T09:46:00;5.03;;;3.70;;
35891;SDS011;21993;42.672;23.296;2023-08-01T09:48:25;5.27;;;3.50;;
35891;SDS011;21993;42.672;23.296;2023-08-01T09:51:03;6.67;;;3.87;;
35891;SDS011;21993;42.672;23.296;2023-08-01T09:53:30;3.60;;;3.30;;
35891;SDS011;21993;42.672;23.296;2023-08-01T09:55:56;7.53;;;3.70;;
35891;SDS011;21993;42.672;23.296;2023-08-01T09:58:24;5.97;;;3.60;;
35891;SDS011;21993;42.672;23.296;2023-08-01T10:00:54;3.90;;;3.40;;
35891;SDS011;21993;42.672;23.296;2023-08-01T10:03:19;5.70;;;3.73;;
35891;SDS011;21993;42.672;23.296;2023-08-01T10:05:45;5.03;;;4.07;;
35891;SDS011;21993;42.672;23.296;2023-08-01T10:08:11;8.87;;;4.33;;
35891;SDS011;21993;42.672;23.296;2023-08-01T10:10:39;7.57;;;4.20;;
35891;SDS011;21993;42.672;23.296;2023-08-01T10:13:05;7.90;;;4.00;;
35891;SDS011;21993;42.672;23.296;2023-08-01T10:15:31;5.37;;;4.17;;
35891;SDS011;21993;42.672;23.296;2023-08-01T10:17:57;6.00;;;3.80;;
35891;SDS011;21993;42.672;23.296;2023-08-01T10:20:22;4.73;;;3.60;;
35891;SDS011;21993;42.672;23.296;2023-08-01T10:22:49;6.33;;;4.00;;
35891;SDS011;21993;42.672;23.296;2023-08-01T10:25:16;5.70;;;4.20;;
35891;SDS011;21993;42.672;23.296;2023-08-01T10:27:43;5.50;;;4.17;;
35891;SDS011;21993;42.672;23.296;2023-08-01T10:30:09;9.13;;;3.97;;
35891;SDS011;21993;42.672;23.296;2023-08-01T10:32:38;4.30;;;3.60;;
35891;SDS011;21993;42.672;23.296;2023-08-01T10:35:04;5.37;;;4.10;;
35891;SDS011;21993;42.672;23.296;2023-08-01T10:37:44;4.63;;;3.93;;
35891;SDS011;21993;42.672;23.296;2023-08-01T10:40:13;9.07;;;4.10;;
35891;SDS011;21993;42.672;23.296;2023-08-01T10:42:47;4.30;;;3.87;;
35891;SDS011;21993;42.672;23.296;2023-08-01T10:45:19;3.90;;;3.50;;
35891;SDS011;21993;42.672;23.296;2023-08-01T10:47:47;5.13;;;3.73;;
35891;SDS011;21993;42.672;23.296;2023-08-01T10:50:16;4.57;;;4.10;;
35891;SDS011;21993;42.672;23.296;2023-08-01T10:52:43;4.37;;;3.47;;
35891;SDS011;21993;42.672;23.296;2023-08-01T10:55:09;4.40;;;3.87;;
35891;SDS011;21993;42.672;23.296;2023-08-01T10:57:36;5.57;;;3.40;;
35891;SDS011;21993;42.672;23.296;2023-08-01T11:00:03;8.67;;;3.67;;
35891;SDS011;21993;42.672;23.296;2023-08-01T11:02:34;6.30;;;3.87;;
35891;SDS011;21993;42.672;23.296;2023-08-01T11:05:06;5.30;;;3.30;;
35891;SDS011;21993;42.672;23.296;2023-08-01T11:07:35;4.03;;;3.70;;
35891;SDS011;21993;42.672;23.296;2023-08-01T11:12:33;4.90;;;3.90;;
35891;SDS011;21993;42.672;23.296;2023-08-01T11:14:59;6.93;;;3.50;;
35891;SDS011;21993;42.672;23.296;2023-08-01T11:17:25;5.03;;;3.00;;
35891;SDS011;21993;42.672;23.296;2023-08-01T11:19:51;2.90;;;2.70;;
35891;SDS011;21993;42.672;23.296;2023-08-01T11:22:16;4.13;;;2.57;;
35891;SDS011;21993;42.672;23.296;2023-08-01T11:24:49;4.10;;;2.90;;
35891;SDS011;21993;42.672;23.296;2023-08-01T11:27:15;4.37;;;2.60;;
35891;SDS011;21993;42.672;23.296;2023-08-01T11:29:40;4.00;;;2.92;;
35891;SDS011;21993;42.672;23.296;2023-08-01T11:32:06;4.20;;;2.83;;
35891;SDS011;21993;42.672;23.296;2023-08-01T11:34:39;5.37;;;2.67;;
35891;SDS011;21993;42.672;23.296;2023-08-01T11:37:06;3.17;;;2.87;;
35891;SDS011;21993;42.672;23.296;2023-08-01T11:39:32;3.93;;;2.70;;
35891;SDS011;21993;42.672;23.296;2023-08-01T11:41:57;4.10;;;2.90;;
35891;SDS011;21993;42.672;23.296;2023-08-01T11:44:23;3.45;;;2.67;;
35891;SDS011;21993;42.672;23.296;2023-08-01T11:46:49;11.33;;;2.90;;
35891;SDS011;21993;42.672;23.296;2023-08-01T11:49:15;3.57;;;2.80;;
35891;SDS011;21993;42.672;23.296;2023-08-01T11:51:41;4.40;;;3.20;;
35891;SDS011;21993;42.672;23.296;2023-08-01T11:54:08;4.32;;;3.22;;
35891;SDS011;21993;42.672;23.296;2023-08-01T11:56:36;3.87;;;2.47;;
35891;SDS011;21993;42.672;23.296;2023-08-01T12:01:42;2.77;;;2.57;;
35891;SDS011;21993;42.672;23.296;2023-08-01T12:04:10;3.87;;;2.80;;
35891;SDS011;21993;42.672;23.296;2023-08-01T12:06:36;2.80;;;2.60;;
35891;SDS011;21993;42.672;23.296;2023-08-01T12:09:11;4.07;;;2.78;;
35891;SDS011;21993;42.672;23.296;2023-08-01T12:11:38;6.40;;;3.33;;
35891;SDS011;21993;42.672;23.296;2023-08-01T12:14:06;5.03;;;3.23;;
35891;SDS011;21993;42.672;23.296;2023-08-01T12:16:39;3.80;;;3.10;;
35891;SDS011;21993;42.672;23.296;2023-08-01T12:19:07;4.25;;;3.72;;
35891;SDS011;21993;42.672;23.296;2023-08-01T12:21:33;5.57;;;3.35;;
35891;SDS011;21993;42.672;23.296;2023-08-01T12:24:00;5.43;;;3.33;;
35891;SDS011;21993;42.672;23.296;2023-08-01T12:26:26;3.17;;;2.87;;
35891;SDS011;21993;42.672;23.296;2023-08-01T12:28:52;3.57;;;3.13;;
35891;SDS011;21993;42.672;23.296;2023-08-01T12:31:21;3.25;;;2.95;;
35891;SDS011;21993;42.672;23.296;2023-08-01T12:33:47;3.00;;;2.70;;
35891;SDS011;21993;42.672;23.296;2023-08-01T12:36:14;4.50;;;2.85;;
35891;SDS011;21993;42.672;23.296;2023-08-01T12:38:39;5.30;;;2.83;;
35891;SDS011;21993;42.672;23.296;2023-08-01T12:41:05;4.30;;;3.43;;
35891;SDS011;21993;42.672;23.296;2023-08-01T12:43:31;4.10;;;2.70;;
35891;SDS011;21993;42.672;23.296;2023-08-01T12:45:57;4.82;;;3.22;;
35891;SDS011;21993;42.672;23.296;2023-08-01T12:48:23;3.28;;;2.38;;
35891;SDS011;21993;42.672;23.296;2023-08-01T12:50:49;3.28;;;2.58;;
35891;SDS011;21993;42.672;23.296;2023-08-01T12:53:14;2.63;;;2.37;;
35891;SDS011;21993;42.672;23.296;2023-08-01T12:55:43;2.60;;;2.40;;
35891;SDS011;21993;42.672;23.296;2023-08-01T12:58:09;3.07;;;2.73;;
35891;SDS011;21993;42.672;23.296;2023-08-01T13:00:35;3.42;;;2.38;;
35891;SDS011;21993;42.672;23.296;2023-08-01T13:03:00;3.58;;;2.33;;
35891;SDS011;21993;42.672;23.296;2023-08-01T13:05:26;2.67;;;2.47;;
35891;SDS011;21993;42.672;23.296;2023-08-01T13:07:51;2.28;;;2.08;;
35891;SDS011;21993;42.672;23.296;2023-08-01T13:10:17;3.47;;;2.40;;
35891;SDS011;21993;42.672;23.296;2023-08-01T13:12:42;6.00;;;2.75;;
35891;SDS011;21993;42.672;23.296;2023-08-01T13:15:08;2.20;;;2.00;;
35891;SDS011;21993;42.672;23.296;2023-08-01T13:17:34;5.20;;;3.10;;
35891;SDS011;21993;42.672;23.296;2023-08-01T13:20:00;2.85;;;2.65;;
35891;SDS011;21993;42.672;23.296;2023-08-01T13:22:25;3.60;;;2.40;;
35891;SDS011;21993;42.672;23.296;2023-08-01T13:24:50;2.80;;;2.42;;
35891;SDS011;21993;42.672;23.296;2023-08-01T13:27:16;5.85;;;2.47;;
35891;SDS011;21993;42.672;23.296;2023-08-01T13:29:41;4.55;;;2.83;;
35891;SDS011;21993;42.672;23.296;2023-08-01T13:32:07;4.75;;;2.10;;
35891;SDS011;21993;42.672;23.296;2023-08-01T13:34:33;2.80;;;2.50;;
35891;SDS011;21993;42.672;23.296;2023-08-01T13:36:58;3.65;;;2.38;;
35891;SDS011;21993;42.672;23.296;2023-08-01T13:39:23;3.83;;;2.50;;
35891;SDS011;21993;42.672;23.296;2023-08-01T13:41:49;2.28;;;2.08;;
35891;SDS011;21993;42.672;23.296;2023-08-01T13:44:14;2.50;;;2.30;;
35891;SDS011;21993;42.672;23.296;2023-08-01T13:46:40;3.08;;;2.60;;
35891;SDS011;21993;42.672;23.296;2023-08-01T13:49:05;2.58;;;2.38;;
35891;SDS011;21993;42.672;23.296;2023-08-01T13:51:32;2.55;;;2.28;;
35891;SDS011;21993;42.672;23.296;2023-08-01T13:53:57;5.97;;;2.53;;
35891;SDS011;21993;42.672;23.296;2023-08-01T13:56:24;2.40;;;2.20;;
35891;SDS011;21993;42.672;23.296;2023-08-01T13:58:50;2.63;;;2.38;;
35891;SDS011;21993;42.672;23.296;2023-08-01T14:01:16;3.38;;;2.50;;
35891;SDS011;21993;42.672;23.296;2023-08-01T14:03:43;2.45;;;2.20;;
35891;SDS011;21993;42.672;23.296;2023-08-01T14:06:13;3.95;;;2.53;;
35891;SDS011;21993;42.672;23.296;2023-08-01T14:08:39;2.47;;;2.28;;
35891;SDS011;21993;42.672;23.296;2023-08-01T14:11:06;8.10;;;2.35;;
35891;SDS011;21993;42.672;23.296;2023-08-01T14:13:33;2.78;;;2.53;;
35891;SDS011;21993;42.672;23.296;2023-08-01T14:15:59;3.25;;;2.60;;
35891;SDS011;21993;42.672;23.296;2023-08-01T14:18:26;3.80;;;2.88;;
35891;SDS011;21993;42.672;23.296;2023-08-01T14:20:52;4.45;;;2.70;;
35891;SDS011;21993;42.672;23.296;2023-08-01T14:23:18;2.65;;;2.33;;
35891;SDS011;21993;42.672;23.296;2023-08-01T14:25:44;4.93;;;2.53;;
35891;SDS011;21993;42.672;23.296;2023-08-01T14:28:09;3.05;;;2.70;;
35891;SDS011;21993;42.672;23.296;2023-08-01T14:30:36;3.25;;;2.60;;
35891;SDS011;21993;42.672;23.296;2023-08-01T14:33:02;3.08;;;2.75;;